TimeCST,TemperatureF,Dew PointF,Humidity,Sea Level PressureIn,VisibilityMPH,Wind Direction,Wind SpeedMPH,Gust SpeedMPH,PrecipitationIn,Events,Conditions,WindDirDegrees,DateUTC
12:15 AM,28.9,26.8,92,30.43,10.0,West,6.9,-,N/A,,Scattered Clouds,260,2013-11-23 06:15:00
12:35 AM,28.4,26.4,92,30.42,10.0,West,6.9,-,N/A,,Clear,270,2013-11-23 06:35:00
12:55 AM,28.2,25.9,91,30.41,10.0,WSW,6.9,-,N/A,,Clear,250,2013-11-23 06:55:00
1:15 AM,27.5,25.5,92,30.41,10.0,West,9.2,-,N/A,,Clear,260,2013-11-23 07:15:00
1:35 AM,27.3,25.5,93,30.42,10.0,West,6.9,-,N/A,,Clear,260,2013-11-23 07:35:00
1:55 AM,27.3,25.2,92,30.41,10.0,WSW,6.9,-,N/A,,Clear,250,2013-11-23 07:55:00
2:15 AM,27.1,25.0,92,30.40,10.0,West,10.4,-,N/A,,Clear,260,2013-11-23 08:15:00
2:35 AM,27.3,24.4,89,30.40,10.0,West,11.5,-,N/A,,Clear,260,2013-11-23 08:35:00
2:55 AM,27.1,24.6,90,30.40,10.0,West,10.4,-,N/A,,Clear,270,2013-11-23 08:55:00
3:15 AM,26.8,24.1,90,30.39,10.0,West,12.7,-,N/A,,Clear,270,2013-11-23 09:15:00
3:35 AM,26.4,23.0,87,30.39,10.0,West,12.7,-,N/A,,Clear,270,2013-11-23 09:35:00
3:55 AM,25.9,22.1,86,30.39,10.0,West,11.5,17.3,N/A,,Clear,270,2013-11-23 09:55:00
4:15 AM,25.5,21.7,86,30.39,10.0,West,10.4,-,N/A,,Clear,270,2013-11-23 10:15:00
4:35 AM,25.3,21.4,85,30.38,10.0,West,10.4,-,N/A,,Clear,270,2013-11-23 10:35:00
4:55 AM,25.0,21.2,86,30.38,10.0,West,9.2,-,N/A,,Clear,280,2013-11-23 10:55:00
5:15 AM,24.6,21.2,87,30.38,10.0,West,11.5,-,N/A,,Clear,270,2013-11-23 11:15:00
5:35 AM,24.6,20.7,85,30.39,10.0,West,9.2,-,N/A,,Clear,270,2013-11-23 11:35:00
5:55 AM,24.4,20.3,84,30.39,10.0,West,11.5,-,N/A,,Clear,280,2013-11-23 11:55:00
6:15 AM,24.3,20.1,84,30.39,10.0,West,11.5,-,N/A,,Clear,280,2013-11-23 12:15:00
6:35 AM,23.9,19.9,85,30.39,10.0,West,10.4,16.1,N/A,,Clear,280,2013-11-23 12:35:00
6:55 AM,23.9,19.8,84,30.40,10.0,West,11.5,-,N/A,,Clear,280,2013-11-23 12:55:00
7:15 AM,24.1,19.9,84,30.40,10.0,West,10.4,16.1,N/A,,Scattered Clouds,280,2013-11-23 13:15:00
7:35 AM,24.8,20.7,84,30.40,10.0,West,10.4,-,N/A,,Mostly Cloudy,280,2013-11-23 13:35:00
7:55 AM,25.7,21.6,84,30.40,10.0,West,9.2,-,N/A,,Overcast,280,2013-11-23 13:55:00
8:15 AM,26.6,22.5,84,30.41,10.0,NW,18.4,-,N/A,,Overcast,320,2013-11-23 14:15:00
8:35 AM,28.2,22.1,78,30.42,10.0,NW,17.3,20.7,N/A,,Mostly Cloudy,310,2013-11-23 14:35:00
8:55 AM,28.8,21.7,75,30.43,10.0,NNW,17.3,24.2,N/A,,Mostly Cloudy,330,2013-11-23 14:55:00
9:15 AM,28.8,21.2,73,30.43,10.0,NW,20.7,28.8,N/A,,Mostly Cloudy,320,2013-11-23 15:15:00
9:35 AM,28.2,20.3,72,30.44,10.0,NW,19.6,28.8,N/A,,Mostly Cloudy,320,2013-11-23 15:35:00
9:55 AM,28.6,19.0,67,30.46,10.0,NW,21.9,27.6,N/A,,Scattered Clouds,320,2013-11-23 15:55:00
10:15 AM,28.9,19.0,67,30.46,10.0,NNW,25.3,33.4,N/A,,Scattered Clouds,330,2013-11-23 16:15:00
10:35 AM,29.1,17.6,62,30.46,10.0,NW,23.0,28.8,N/A,,Scattered Clouds,320,2013-11-23 16:35:00
10:55 AM,28.8,17.8,64,30.46,10.0,NW,26.5,32.2,N/A,,Scattered Clouds,310,2013-11-23 16:55:00
11:15 AM,28.6,19.2,68,30.46,7.0,NW,21.9,32.2,N/A,,Scattered Clouds,320,2013-11-23 17:15:00
11:35 AM,27.5,20.5,75,30.47,10.0,NW,25.3,33.4,N/A,,Overcast,320,2013-11-23 17:35:00
11:55 AM,26.1,20.8,81,30.47,1.0,NNW,27.6,31.1,N/A,,Overcast,330,2013-11-23 17:55:00
12:15 PM,25.9,19.6,77,30.47,10.0,NW,19.6,25.3,N/A,,Overcast,320,2013-11-23 18:15:00
12:35 PM,26.2,20.8,80,30.47,10.0,NW,19.6,27.6,N/A,,Overcast,320,2013-11-23 18:35:00
12:55 PM,25.9,18.1,73,30.48,7.0,NNW,18.4,23.0,N/A,,Overcast,330,2013-11-23 18:55:00
1:15 PM,26.1,16.9,68,30.48,10.0,NW,23.0,27.6,N/A,,Overcast,320,2013-11-23 19:15:00
1:35 PM,25.3,18.9,76,30.49,7.0,NW,18.4,28.8,N/A,,Overcast,310,2013-11-23 19:35:00
1:55 PM,25.2,19.0,78,30.49,10.0,NNW,15.0,21.9,N/A,,Overcast,330,2013-11-23 19:55:00
2:15 PM,25.0,18.1,75,30.50,10.0,NNW,26.5,31.1,N/A,,Overcast,340,2013-11-23 20:15:00
2:35 PM,24.4,17.6,75,30.51,10.0,NNW,24.2,29.9,N/A,,Overcast,340,2013-11-23 20:35:00
2:55 PM,24.1,17.8,77,30.52,7.0,NNW,20.7,-,N/A,,Overcast,330,2013-11-23 20:55:00
3:15 PM,23.7,17.4,77,30.52,3.0,NNW,19.6,24.2,N/A,,Overcast,340,2013-11-23 21:15:00
3:35 PM,23.4,17.4,78,30.53,7.0,NNW,19.6,25.3,N/A,,Overcast,330,2013-11-23 21:35:00
3:55 PM,23.5,14.5,69,30.54,10.0,NNW,21.9,28.8,N/A,,Overcast,340,2013-11-23 21:55:00
4:15 PM,23.4,15.8,73,30.54,10.0,NNW,16.1,-,N/A,,Overcast,330,2013-11-23 22:15:00
4:35 PM,23.4,15.3,71,30.55,7.0,NNW,16.1,25.3,N/A,,Overcast,340,2013-11-23 22:35:00
4:55 PM,23.2,14.7,70,30.55,10.0,North,20.7,25.3,N/A,,Overcast,350,2013-11-23 22:55:00
5:15 PM,22.8,15.4,73,30.56,4.0,NNW,16.1,-,N/A,,Overcast,340,2013-11-23 23:15:00
5:35 PM,22.6,16.2,76,30.56,10.0,NNW,16.1,21.9,N/A,,Overcast,340,2013-11-23 23:35:00
5:55 PM,22.8,15.8,74,30.57,10.0,NNW,15.0,-,N/A,,Overcast,330,2013-11-23 23:55:00
6:15 PM,22.8,15.6,74,30.58,10.0,NNW,16.1,21.9,N/A,,Overcast,330,2013-11-24 00:15:00
6:35 PM,23.0,14.5,70,30.58,10.0,NNW,16.1,20.7,N/A,,Overcast,330,2013-11-24 00:35:00
6:55 PM,23.2,12.7,64,30.58,10.0,NNW,17.3,21.9,N/A,,Unknown,330,2013-11-24 00:55:00
7:15 PM,23.0,12.6,64,30.58,10.0,NW,20.7,26.5,N/A,,Unknown,320,2013-11-24 01:15:00
7:35 PM,23.0,14.2,69,30.59,10.0,NNW,17.3,-,N/A,,Unknown,330,2013-11-24 01:35:00
7:55 PM,22.6,14.9,72,30.60,10.0,NNW,16.1,26.5,N/A,,Unknown,330,2013-11-24 01:55:00
8:15 PM,22.5,15.6,75,30.60,10.0,NNW,16.1,-,N/A,,Unknown,330,2013-11-24 02:15:00
8:35 PM,21.9,16.2,78,30.60,7.0,NNW,17.3,20.7,N/A,,Unknown,340,2013-11-24 02:35:00
8:55 PM,21.4,17.8,86,30.60,4.0,NNW,13.8,-,N/A,,Unknown,330,2013-11-24 02:55:00
9:15 PM,21.4,18.0,87,30.60,4.0,NW,11.5,-,N/A,,Unknown,320,2013-11-24 03:15:00
9:35 PM,21.7,17.4,83,30.60,5.0,NNW,13.8,-,N/A,,Unknown,330,2013-11-24 03:35:00
9:55 PM,21.6,17.8,85,30.60,5.0,NNW,10.4,-,N/A,,Unknown,330,2013-11-24 03:55:00
10:15 PM,21.7,16.9,82,30.61,2.5,NNW,11.5,-,N/A,,Unknown,340,2013-11-24 04:15:00
10:35 PM,21.2,17.4,85,30.61,7.0,NNW,13.8,-,N/A,,Unknown,330,2013-11-24 04:35:00
10:55 PM,21.0,17.4,86,30.60,5.0,NNW,10.4,-,N/A,,Unknown,330,2013-11-24 04:55:00
11:15 PM,21.0,17.6,87,30.60,3.0,North,11.5,-,N/A,,Unknown,350,2013-11-24 05:15:00
11:35 PM,20.8,18.3,90,30.60,2.5,NNW,10.4,-,N/A,,Unknown,330,2013-11-24 05:35:00
11:55 PM,20.3,18.3,92,30.60,4.0,NNW,8.1,-,N/A,,Unknown,330,2013-11-24 05:55:00